createdAt,value
2023-03-30T00:04:34.724Z,74.39
2023-03-30T00:09:42.373Z,75.03
2023-03-30T00:14:43.926Z,76.89
2023-03-30T00:19:45.951Z,75.59
2023-03-30T00:24:47.717Z,74.41
2023-03-30T00:29:49.294Z,74.82
2023-03-30T00:34:50.949Z,75.70
2023-03-30T00:39:53.361Z,76.42
2023-03-30T00:45:03.035Z,75.42
2023-03-30T00:50:05.723Z,75.43
2023-03-30T00:55:09.141Z,75.83
2023-03-30T01:00:12.568Z,76.02
2023-03-30T01:05:14.163Z,75.90
2023-03-30T01:10:16.392Z,76.03
2023-03-30T01:15:18.090Z,75.85
2023-03-30T01:20:34.929Z,76.45
2023-03-30T01:25:52.437Z,75.69
2023-03-30T01:31:06.657Z,75.67
2023-03-30T01:36:31.107Z,75.67
2023-03-30T01:42:00.645Z,76.67
2023-03-30T01:47:10.043Z,76.62
2023-03-30T01:52:17.576Z,77.18
2023-03-30T01:57:22.302Z,77.30
2023-03-30T02:02:27.499Z,77.76
2023-03-30T02:07:31.997Z,77.24
2023-03-30T02:12:33.730Z,76.76
2023-03-30T02:17:35.998Z,77.66
2023-03-30T02:22:38.044Z,78.00
2023-03-30T02:27:41.983Z,78.40
2023-03-30T02:32:53.280Z,78.38
2023-03-30T02:38:01.580Z,78.42
2023-03-30T02:43:45.565Z,78.56
2023-03-30T02:48:53.501Z,78.97
2023-03-30T02:54:40.076Z,79.33
2023-03-30T03:00:00.423Z,78.07
2023-03-30T03:05:04.060Z,78.39
2023-03-30T03:10:40.980Z,78.60
2023-03-30T03:15:45.545Z,78.12
2023-03-30T03:20:48.178Z,78.03
2023-03-30T03:25:49.973Z,78.74
2023-03-30T03:30:54.191Z,78.12
2023-03-30T03:36:00.246Z,78.98
2023-03-30T03:41:04.615Z,78.34
2023-03-30T03:46:07.021Z,77.73
2023-03-30T03:51:09.836Z,77.84
2023-03-30T03:56:11.811Z,77.51
2023-03-30T04:01:14.449Z,77.59
2023-03-30T04:06:16.407Z,77.80
2023-03-30T04:11:18.987Z,78.32
2023-03-30T04:16:31.911Z,76.95
2023-03-30T04:22:02.362Z,77.43
2023-03-30T04:27:28.743Z,77.90
2023-03-30T04:33:03.361Z,78.44
2023-03-30T04:38:36.473Z,78.61
2023-03-30T04:43:47.118Z,79.33
2023-03-30T04:49:03.505Z,79.36
2023-03-30T04:54:25.658Z,79.27
2023-03-30T04:59:45.956Z,80.03
2023-03-30T05:05:19.661Z,79.90
2023-03-30T05:10:50.593Z,80.04
2023-03-30T05:16:12.018Z,79.54
2023-03-30T05:21:32.031Z,79.92
2023-03-30T05:26:48.813Z,80.21
2023-03-30T05:32:06.294Z,79.61
2023-03-30T05:37:37.742Z,79.99
2023-03-30T05:43:14.605Z,79.59
2023-03-30T05:48:34.543Z,79.71
2023-03-30T05:54:14.835Z,79.78
2023-03-30T05:59:24.555Z,78.89
2023-03-30T06:04:44.504Z,79.04
2023-03-30T06:09:47.159Z,79.36
2023-03-30T06:14:58.591Z,78.55
2023-03-30T06:20:21.532Z,79.03
2023-03-30T06:25:24.673Z,78.69
2023-03-30T06:30:28.003Z,78.17
2023-03-30T06:35:33.232Z,78.36
2023-03-30T06:40:35.898Z,78.37
2023-03-30T06:45:38.114Z,78.25
2023-03-30T06:50:40.689Z,78.09
2023-03-30T06:56:02.572Z,78.04
2023-03-30T07:01:14.007Z,77.92
2023-03-30T07:06:35.604Z,78.44
2023-03-30T07:11:37.194Z,78.17
2023-03-30T07:16:39.526Z,78.23
2023-03-30T07:21:42.117Z,77.64
2023-03-30T07:26:46.979Z,77.14
2023-03-30T07:31:48.748Z,77.03
2023-03-30T07:36:50.442Z,76.68
2023-03-30T07:41:53.921Z,76.88
2023-03-30T07:46:57.887Z,75.93
2023-03-30T07:52:01.393Z,74.12
2023-03-30T07:57:12.226Z,73.98
2023-03-30T08:02:14.981Z,73.53
2023-03-30T08:07:30.061Z,72.62
2023-03-30T08:12:42.097Z,72.21
2023-03-30T08:17:43.723Z,72.76
2023-03-30T08:22:45.647Z,72.94
2023-03-30T08:27:47.433Z,72.67
2023-03-30T08:32:49.160Z,73.27
2023-03-30T08:37:50.912Z,72.23
2023-03-30T08:43:17.201Z,71.93
2023-03-30T08:48:21.210Z,70.52
2023-03-30T08:53:23.016Z,71.81
2023-03-30T08:58:44.329Z,72.22
2023-03-30T09:04:16.706Z,72.49
2023-03-30T09:09:20.132Z,72.41
2023-03-30T09:14:29.404Z,72.64
2023-03-30T09:19:35.904Z,73.05
2023-03-30T09:24:37.519Z,73.29
2023-03-30T09:29:45.374Z,74.00
2023-03-30T09:34:50.381Z,75.09
2023-03-30T09:39:52.013Z,76.70
2023-03-30T09:45:14.780Z,78.27
2023-03-30T09:50:26.853Z,79.18
2023-03-30T09:55:31.442Z,80.49
2023-03-30T10:00:34.157Z,80.08
2023-03-30T10:05:36.768Z,81.09
2023-03-30T10:10:40.926Z,81.21
2023-03-30T10:15:44.906Z,81.62
2023-03-30T10:21:13.037Z,82.06
2023-03-30T10:26:19.374Z,84.01
2023-03-30T10:31:22.271Z,84.33
2023-03-30T10:36:29.598Z,84.85
2023-03-30T10:41:31.676Z,84.14
2023-03-30T10:46:33.311Z,85.41
2023-03-30T10:52:01.568Z,86.31
2023-03-30T10:57:10.254Z,87.25
2023-03-30T11:02:15.243Z,85.42
2023-03-30T11:07:32.504Z,82.94
2023-03-30T11:12:39.682Z,83.01
2023-03-30T11:17:54.126Z,82.27
2023-03-30T11:23:04.642Z,83.86
2023-03-30T11:28:19.024Z,83.40
2023-03-30T11:33:36.995Z,82.45
2023-03-30T11:38:44.371Z,81.83
2023-03-30T11:43:46.019Z,80.74
2023-03-30T11:49:06.305Z,79.31
2023-03-30T11:54:59.859Z,77.14
2023-03-30T12:00:31.027Z,77.62
2023-03-30T12:05:39.957Z,74.69
2023-03-30T12:10:42.692Z,74.67
2023-03-30T12:15:55.804Z,74.90
2023-03-30T12:21:00.378Z,72.80
2023-03-30T12:26:04.249Z,72.34
2023-03-30T12:31:06.431Z,72.28
2023-03-30T12:36:38.280Z,71.97
2023-03-30T12:41:48.721Z,70.06
2023-03-30T12:47:18.542Z,69.14
2023-03-30T12:52:51.360Z,67.92
2023-03-30T12:58:10.821Z,67.70
2023-03-30T13:03:22.418Z,66.85
2023-03-30T13:08:37.824Z,66.97
2023-03-30T13:13:47.273Z,66.30
2023-03-30T13:18:54.831Z,65.77
2023-03-30T13:24:05.025Z,65.72
2023-03-30T13:29:11.677Z,65.27
2023-03-30T13:34:31.401Z,65.61
2023-03-30T13:39:42.436Z,64.68
2023-03-30T13:44:58.733Z,64.28
2023-03-30T13:50:03.570Z,64.82
2023-03-30T13:55:10.617Z,64.59
2023-03-30T14:00:47.256Z,64.80
2023-03-30T14:05:50.193Z,64.50
2023-03-30T14:10:52.382Z,64.22
2023-03-30T14:15:54.687Z,64.54
2023-03-30T14:20:58.203Z,62.66
2023-03-30T14:26:12.357Z,63.14
2023-03-30T14:31:20.108Z,62.46
2023-03-30T14:36:22.093Z,63.03
2023-03-30T14:41:27.576Z,62.15
2023-03-30T14:46:43.332Z,61.99
2023-03-30T14:51:48.579Z,61.83
2023-03-30T14:56:58.902Z,62.16
2023-03-30T15:02:01.453Z,62.40
2023-03-30T15:07:03.463Z,62.04
2023-03-30T15:12:05.975Z,61.80
2023-03-30T15:17:21.829Z,61.95
2023-03-30T15:22:38.184Z,61.59
2023-03-30T15:27:42.910Z,62.70
2023-03-30T15:32:44.663Z,62.24
2023-03-30T15:38:04.015Z,63.78
2023-03-30T15:43:11.603Z,65.12
2023-03-30T15:48:13.563Z,66.61
2023-03-30T15:53:21.829Z,66.10
2023-03-30T15:58:26.114Z,66.08
2023-03-30T16:03:40.345Z,68.07
2023-03-30T16:08:44.369Z,72.92
2023-03-30T16:13:48.463Z,73.44
2023-03-30T16:18:50.286Z,74.21
2023-03-30T16:23:52.126Z,76.90
2023-03-30T16:28:53.959Z,77.08
2023-03-30T16:33:55.702Z,77.52
2023-03-30T16:38:57.351Z,77.65
2023-03-30T16:43:59.035Z,79.86
2023-03-30T16:49:00.718Z,79.00
2023-03-30T16:54:02.569Z,79.96
2023-03-30T16:59:04.628Z,79.56
2023-03-30T17:04:09.573Z,79.68
2023-03-30T17:09:17.138Z,79.92
2023-03-30T17:14:20.349Z,80.05
2023-03-30T17:19:22.118Z,78.50
2023-03-30T17:24:23.759Z,77.47
2023-03-30T17:29:25.615Z,77.15
2023-03-30T17:34:27.237Z,75.16
2023-03-30T17:39:29.090Z,74.83
2023-03-30T17:44:30.739Z,74.41
2023-03-30T17:49:32.460Z,74.34
2023-03-30T17:54:34.079Z,74.36
2023-03-30T17:59:36.340Z,73.13
2023-03-30T18:04:38.252Z,72.89
2023-03-30T18:09:39.926Z,72.68
2023-03-30T18:14:41.547Z,73.45
2023-03-30T18:19:44.549Z,73.46
2023-03-30T18:24:46.150Z,74.25
2023-03-30T18:29:47.744Z,76.37
2023-03-30T18:34:49.316Z,74.60
2023-03-30T18:39:51.052Z,75.28
2023-03-30T18:44:53.525Z,77.01
2023-03-30T18:49:55.147Z,78.75
2023-03-30T18:54:57.247Z,75.79
2023-03-30T18:59:58.920Z,77.80
2023-03-30T19:05:00.758Z,78.13
2023-03-30T19:10:02.402Z,76.79
2023-03-30T19:15:05.094Z,76.62
2023-03-30T19:20:07.379Z,77.04
2023-03-30T19:25:09.890Z,76.18
2023-03-30T19:30:14.168Z,78.13
2023-03-30T19:35:17.020Z,76.68
2023-03-30T19:40:19.602Z,78.48
2023-03-30T19:45:22.964Z,78.55
2023-03-30T19:50:25.067Z,78.85
2023-03-30T19:55:27.456Z,79.48
2023-03-30T20:00:31.373Z,78.01
2023-03-30T20:05:33.044Z,77.24
2023-03-30T20:10:34.720Z,77.75
2023-03-30T20:15:36.385Z,77.45
2023-03-30T20:20:38.421Z,78.26
2023-03-30T20:25:46.429Z,78.00
2023-03-30T20:30:48.292Z,77.34
2023-03-30T20:35:52.893Z,77.90
2023-03-30T20:40:59.143Z,77.32
2023-03-30T20:46:09.204Z,77.52
2023-03-30T20:51:12.974Z,78.67
2023-03-30T20:56:14.958Z,78.10
2023-03-30T21:01:18.968Z,77.20
2023-03-30T21:06:23.797Z,78.19
2023-03-30T21:11:29.074Z,79.73
2023-03-30T21:16:30.922Z,78.97
2023-03-30T21:21:34.796Z,79.42
2023-03-30T21:26:36.929Z,79.51
2023-03-30T21:31:38.533Z,80.36
2023-03-30T21:36:40.389Z,79.81
2023-03-30T21:41:42.187Z,78.52
2023-03-30T21:46:43.820Z,80.13
2023-03-30T21:51:45.888Z,79.83
2023-03-30T21:56:47.583Z,79.23
2023-03-30T22:01:49.199Z,79.22
2023-03-30T22:06:50.922Z,80.48
2023-03-30T22:11:54.078Z,80.21
2023-03-30T22:16:57.928Z,78.59
2023-03-30T22:21:59.546Z,79.32
2023-03-30T22:27:01.155Z,79.61
2023-03-30T22:32:03.020Z,78.46
2023-03-30T22:37:04.700Z,79.34
2023-03-30T22:42:06.941Z,79.97
2023-03-30T22:47:08.838Z,80.34
2023-03-30T22:52:10.516Z,79.00
2023-03-30T22:57:12.175Z,78.59
2023-03-30T23:02:13.915Z,77.68
2023-03-30T23:07:15.846Z,77.29
2023-03-30T23:12:17.510Z,77.58
2023-03-30T23:17:19.083Z,77.65
2023-03-30T23:22:21.410Z,77.14
2023-03-30T23:27:23.922Z,77.21
2023-03-30T23:32:25.692Z,77.21
2023-03-30T23:37:30.279Z,77.64
2023-03-30T23:42:31.924Z,77.41
2023-03-30T23:47:33.609Z,77.48
2023-03-30T23:52:35.268Z,77.57
2023-03-30T23:57:36.869Z,76.83
